Altoona, Wisconsin
Current Conditions -  °F | °C
As of 2:56 AM on Saturday 22 Nov 2014 (Local Time) from KEAU Reporting Station
Overcast Overcast  
Wind Chill: -5°   Ceiling: 1300
Heat Index:   Visibility: 8mi
Dew Point: -2°   Wind: 13mph
Humidity: 82%   Direction: 210°SSW
Pressure: 29.86"   Gusts: NA
Location:  44.81°N, 91.43°W
Report Text: KEAU 220856Z AUTO 21011KT 8SM OVC013 01/M02 A2986 RMK AO2 SLP124 T00061022 58017
Loading
Personal Weather Stations






























Interactive Weather Map New forecast layout! Learn more

10-Day Weather Forecast

Advertisements
Track Severe Weather on mobile